createdAt,value
2022-08-02T00:00:55.562Z,23.55682373
2022-08-02T00:01:54.729Z,23.53668213
2022-08-02T00:02:55.474Z,23.53668213
2022-08-02T00:03:56.284Z,23.53668213
2022-08-02T00:04:57.026Z,23.52661133
2022-08-02T00:05:57.687Z,23.53668213
2022-08-02T00:06:58.467Z,23.51654053
2022-08-02T00:07:59.290Z,23.51654053
2022-08-02T00:09:00.799Z,23.49639893
2022-08-02T00:10:02.400Z,23.49639893
2022-08-02T00:11:03.149Z,23.51654053
2022-08-02T00:12:04.868Z,23.48632813
2022-08-02T00:13:05.662Z,23.48632813
2022-08-02T00:14:06.433Z,23.48632813
2022-08-02T00:15:07.254Z,23.46618652
2022-08-02T00:16:08.832Z,23.48632813
2022-08-02T00:17:09.665Z,23.46618652
2022-08-02T00:18:10.534Z,23.46618652
2022-08-02T00:19:12.253Z,23.41583252
2022-08-02T00:20:12.986Z,23.38562012
2022-08-02T00:21:14.201Z,23.34533691
2022-08-02T00:22:15.397Z,23.30505371
2022-08-02T00:23:15.881Z,23.30505371
2022-08-02T00:24:29.031Z,23.29498291
2022-08-02T00:25:17.441Z,23.29498291
2022-08-02T00:26:18.075Z,23.30505371
2022-08-02T00:27:18.902Z,23.33526611
2022-08-02T00:28:26.859Z,23.36547852
2022-08-02T00:29:53.291Z,23.40576172
2022-08-02T00:30:52.837Z,23.41583252
2022-08-02T00:31:53.606Z,23.48632813
2022-08-02T00:32:54.414Z,23.46618652
2022-08-02T00:34:26.164Z,23.49639893
2022-08-02T00:34:56.110Z,23.51654053
2022-08-02T00:35:57.366Z,23.51654053
2022-08-02T00:36:58.221Z,23.51654053
2022-08-02T00:37:58.920Z,23.49639893
2022-08-02T00:39:00.262Z,23.51654053
2022-08-02T00:40:01.853Z,23.51654053
2022-08-02T00:41:02.609Z,23.51654053
2022-08-02T00:42:03.352Z,23.49639893
2022-08-02T00:43:04.158Z,23.51654053
2022-08-02T00:44:04.946Z,23.52661133
2022-08-02T00:45:05.666Z,23.53668213
2022-08-02T00:46:06.389Z,23.53668213
2022-08-02T00:47:07.073Z,23.55682373
2022-08-02T00:48:07.869Z,23.58703613
2022-08-02T00:49:09.441Z,23.58703613
2022-08-02T00:50:10.094Z,23.61724854
2022-08-02T00:51:11.722Z,23.59710693
2022-08-02T00:52:13.016Z,23.61724854
2022-08-02T00:53:13.302Z,23.61724854
2022-08-02T00:54:14.104Z,23.59710693
2022-08-02T00:55:17.477Z,23.59710693
2022-08-02T00:56:16.259Z,23.59710693
2022-08-02T00:57:17.046Z,23.59710693
2022-08-02T00:58:17.885Z,23.56689453
2022-08-02T00:59:19.405Z,23.52661133
2022-08-02T01:00:50.541Z,23.53668213
2022-08-02T01:01:55.839Z,23.52661133
2022-08-02T01:02:52.023Z,23.51654053
2022-08-02T01:03:53.768Z,23.51654053
2022-08-02T01:04:54.587Z,23.49639893
2022-08-02T01:06:02.361Z,23.51654053
2022-08-02T01:06:56.721Z,23.51654053
2022-08-02T01:07:57.472Z,23.51654053
2022-08-02T01:08:58.917Z,23.48632813
2022-08-02T01:09:59.707Z,23.46618652
2022-08-02T01:11:00.427Z,23.43597412
2022-08-02T01:12:07.329Z,23.37554932
2022-08-02T01:13:01.906Z,23.33526611
2022-08-02T01:14:02.724Z,23.31512451
2022-08-02T01:15:03.528Z,23.31512451
2022-08-02T01:16:04.309Z,23.30505371
2022-08-02T01:17:05.059Z,23.29498291
2022-08-02T01:18:05.789Z,23.26477051
2022-08-02T01:19:07.384Z,23.29498291
2022-08-02T01:20:08.213Z,23.29498291
2022-08-02T01:21:09.012Z,23.30505371
2022-08-02T01:22:10.072Z,23.31512451
2022-08-02T01:23:11.508Z,23.30505371
2022-08-02T01:24:12.370Z,23.29498291
2022-08-02T01:25:13.201Z,23.30505371
2022-08-02T01:26:13.989Z,23.31512451
2022-08-02T01:27:14.689Z,23.31512451
2022-08-02T01:28:15.406Z,23.33526611
2022-08-02T01:29:16.897Z,23.31512451
2022-08-02T01:30:17.794Z,23.31512451
2022-08-02T01:31:18.588Z,23.31512451
2022-08-02T01:32:49.961Z,23.29498291
2022-08-02T01:33:51.365Z,23.30505371
2022-08-02T01:34:52.140Z,23.31512451
2022-08-02T01:35:52.956Z,23.31512451
2022-08-02T01:36:54.273Z,23.26477051
2022-08-02T01:37:55.110Z,23.29498291
2022-08-02T01:38:55.668Z,23.23455811
2022-08-02T01:39:57.292Z,23.2244873
2022-08-02T01:40:58.086Z,23.2144165
2022-08-02T01:41:59.209Z,23.2244873
2022-08-02T01:42:59.670Z,23.23455811
2022-08-02T01:44:00.313Z,23.25469971
2022-08-02T01:45:01.047Z,23.29498291
2022-08-02T01:46:01.839Z,23.29498291
2022-08-02T01:47:02.684Z,23.23455811
2022-08-02T01:48:03.488Z,23.25469971
2022-08-02T01:49:06.841Z,23.25469971
2022-08-02T01:50:06.958Z,23.23455811
2022-08-02T01:51:07.793Z,23.23455811
2022-08-02T01:52:09.060Z,23.2244873
2022-08-02T01:53:09.476Z,23.25469971
2022-08-02T01:54:10.696Z,23.26477051
2022-08-02T01:55:18.550Z,23.26477051
2022-08-02T01:56:12.506Z,23.26477051
2022-08-02T01:57:13.376Z,23.26477051
2022-08-02T01:58:14.212Z,23.25469971
2022-08-02T01:59:15.859Z,23.25469971
2022-08-02T02:00:16.556Z,23.26477051
2022-08-02T02:01:18.560Z,23.25469971
2022-08-02T02:02:18.212Z,23.23455811
2022-08-02T02:03:49.601Z,23.25469971
2022-08-02T02:04:50.268Z,23.23455811
2022-08-02T02:05:51.020Z,23.23455811
2022-08-02T02:06:52.838Z,23.23455811
2022-08-02T02:07:53.674Z,23.2244873
2022-08-02T02:08:54.525Z,23.1942749
2022-08-02T02:09:55.712Z,23.2244873
2022-08-02T02:10:56.491Z,23.1942749
2022-08-02T02:12:09.456Z,23.1842041
2022-08-02T02:12:58.107Z,23.1640625
2022-08-02T02:13:58.866Z,23.1640625
2022-08-02T02:14:59.530Z,23.1539917
2022-08-02T02:16:00.879Z,23.1640625
2022-08-02T02:17:01.709Z,23.1439209
2022-08-02T02:18:12.729Z,23.1137085
2022-08-02T02:19:03.371Z,23.1237793
2022-08-02T02:20:04.705Z,23.1137085
2022-08-02T02:21:05.389Z,23.07342529
2022-08-02T02:22:06.871Z,23.07342529
2022-08-02T02:23:08.058Z,23.04321289
2022-08-02T02:24:11.751Z,23.03314209
2022-08-02T02:25:11.458Z,23.04321289
2022-08-02T02:26:09.826Z,23.03314209
2022-08-02T02:27:10.560Z,23.03314209
2022-08-02T02:28:11.595Z,23.03314209
2022-08-02T02:29:12.452Z,23.04321289
2022-08-02T02:30:13.756Z,23.03314209
2022-08-02T02:31:14.484Z,23.01300049
2022-08-02T02:32:15.309Z,23.03314209
2022-08-02T02:33:16.101Z,23.01300049
2022-08-02T02:34:16.943Z,22.99285889
2022-08-02T02:35:17.667Z,22.91229248
2022-08-02T02:36:49.709Z,22.89215088
2022-08-02T02:37:50.498Z,22.86193848
2022-08-02T02:38:51.476Z,22.84179688
2022-08-02T02:39:52.836Z,22.82165527
2022-08-02T02:40:54.401Z,22.82165527
2022-08-02T02:41:55.088Z,22.81158447
2022-08-02T02:42:55.871Z,22.84179688
2022-08-02T02:43:56.665Z,22.84179688
2022-08-02T02:44:57.506Z,22.84179688
2022-08-02T02:45:58.853Z,22.82165527
2022-08-02T02:46:59.549Z,22.84179688
2022-08-02T02:48:00.312Z,22.85186768
2022-08-02T02:49:01.224Z,22.84179688
2022-08-02T02:50:02.935Z,22.79144287
2022-08-02T02:51:03.679Z,22.79144287
2022-08-02T02:52:04.375Z,22.79144287
2022-08-02T02:53:05.062Z,22.81158447
2022-08-02T02:54:31.070Z,22.79144287
2022-08-02T02:55:07.618Z,22.79144287
2022-08-02T02:56:08.383Z,22.79144287
2022-08-02T02:57:09.076Z,22.81158447
2022-08-02T02:58:09.828Z,22.79144287
2022-08-02T02:59:10.631Z,22.79144287
2022-08-02T03:00:12.374Z,22.79144287
2022-08-02T03:01:13.218Z,22.76123047
2022-08-02T03:02:14.252Z,22.76123047
2022-08-02T03:03:14.560Z,22.75115967
2022-08-02T03:04:15.337Z,22.70080566
2022-08-02T03:05:16.204Z,22.69073486
2022-08-02T03:06:16.982Z,22.64038086
2022-08-02T03:07:49.374Z,22.63031006
2022-08-02T03:08:50.144Z,22.59002686
2022-08-02T03:09:53.788Z,22.53967285
2022-08-02T03:10:52.784Z,22.48931885
2022-08-02T03:11:54.404Z,22.45910645
2022-08-02T03:12:55.235Z,22.44903564
2022-08-02T03:13:55.966Z,22.44903564
2022-08-02T03:14:56.759Z,22.45910645
2022-08-02T03:15:57.606Z,22.43896484
2022-08-02T03:16:58.370Z,22.43896484
2022-08-02T03:17:59.085Z,22.41882324
2022-08-02T03:18:59.761Z,22.41882324
2022-08-02T03:20:01.411Z,22.40875244
2022-08-02T03:21:02.249Z,22.41882324
2022-08-02T03:22:03.021Z,22.43896484
2022-08-02T03:23:03.879Z,22.43896484
2022-08-02T03:24:04.722Z,22.45910645
2022-08-02T03:25:05.460Z,22.44903564
2022-08-02T03:26:06.255Z,22.43896484
2022-08-02T03:27:07.022Z,22.43896484
2022-08-02T03:28:07.736Z,22.43896484
2022-08-02T03:29:10.014Z,22.47924805
2022-08-02T03:30:09.932Z,22.47924805
2022-08-02T03:31:10.807Z,22.47924805
2022-08-02T03:32:11.888Z,22.47924805
2022-08-02T03:33:12.491Z,22.48931885
2022-08-02T03:34:13.305Z,22.45910645
2022-08-02T03:35:13.999Z,22.47924805
2022-08-02T03:36:14.748Z,22.47924805
2022-08-02T03:37:16.227Z,22.43896484
2022-08-02T03:38:16.931Z,22.35839844
2022-08-02T03:39:51.870Z,22.34832764
2022-08-02T03:40:50.805Z,22.29797363
2022-08-02T03:41:52.478Z,22.26776123
2022-08-02T03:42:53.247Z,22.22747803
2022-08-02T03:43:54.060Z,22.25769043
2022-08-02T03:44:54.892Z,22.26776123
2022-08-02T03:45:55.724Z,22.23754883
2022-08-02T03:46:56.639Z,22.22747803
2022-08-02T03:47:58.765Z,22.22747803
2022-08-02T03:48:58.254Z,22.18719482
2022-08-02T03:49:59.894Z,22.19726563
2022-08-02T03:51:00.606Z,22.18719482
2022-08-02T03:52:01.435Z,22.16705322
2022-08-02T03:53:02.228Z,22.16705322
2022-08-02T03:54:03.775Z,22.14691162
2022-08-02T03:55:05.255Z,22.16705322
2022-08-02T03:56:06.940Z,22.16705322
2022-08-02T03:57:09.613Z,22.16705322
2022-08-02T03:58:08.557Z,22.18719482
2022-08-02T03:59:09.247Z,22.20733643
2022-08-02T04:00:10.898Z,22.22747803
2022-08-02T04:01:11.841Z,22.25769043
2022-08-02T04:02:12.853Z,22.23754883
2022-08-02T04:03:13.240Z,22.22747803
2022-08-02T04:04:14.079Z,22.25769043
2022-08-02T04:05:14.874Z,22.29797363
2022-08-02T04:06:15.858Z,22.30804443
2022-08-02T04:07:18.547Z,22.32818604
2022-08-02T04:08:48.617Z,22.32818604
2022-08-02T04:09:49.356Z,22.28790283
2022-08-02T04:10:50.743Z,22.26776123
2022-08-02T04:11:51.514Z,22.23754883
2022-08-02T04:12:52.945Z,22.19726563
2022-08-02T04:13:56.896Z,22.18719482
2022-08-02T04:14:54.386Z,22.19726563
2022-08-02T04:15:55.129Z,22.16705322
2022-08-02T04:16:55.912Z,22.18719482
2022-08-02T04:17:56.780Z,22.14691162
2022-08-02T04:18:57.587Z,22.11669922
2022-08-02T04:19:58.385Z,22.14691162
2022-08-02T04:20:59.814Z,22.18719482
2022-08-02T04:22:00.631Z,22.19726563
2022-08-02T04:23:02.491Z,22.18719482
2022-08-02T04:24:03.264Z,22.16705322
2022-08-02T04:25:04.154Z,22.14691162
2022-08-02T04:26:04.753Z,22.13684082
2022-08-02T04:27:19.229Z,22.13684082
2022-08-02T04:28:17.732Z,22.16705322
2022-08-02T04:29:07.041Z,22.16705322
2022-08-02T04:30:08.430Z,22.14691162
2022-08-02T04:31:09.176Z,22.13684082
2022-08-02T04:32:10.272Z,22.14691162
2022-08-02T04:33:11.654Z,22.13684082
2022-08-02T04:34:15.191Z,22.14691162
2022-08-02T04:35:20.883Z,22.11669922
2022-08-02T04:36:13.975Z,22.10662842
2022-08-02T04:37:14.717Z,22.13684082
2022-08-02T04:38:15.464Z,22.14691162
2022-08-02T04:39:16.142Z,22.18719482
2022-08-02T04:40:48.361Z,22.20733643
2022-08-02T04:41:49.000Z,22.22747803
2022-08-02T04:42:49.761Z,22.23754883
2022-08-02T04:43:51.373Z,22.23754883
2022-08-02T04:44:52.150Z,22.22747803
2022-08-02T04:45:52.867Z,22.20733643
2022-08-02T04:46:53.633Z,22.22747803
2022-08-02T04:48:55.319Z,22.23754883
2022-08-02T04:49:56.193Z,22.25769043
2022-08-02T04:50:57.739Z,22.25769043
2022-08-02T04:51:58.441Z,22.22747803
2022-08-02T04:52:59.262Z,22.25769043
2022-08-02T04:54:06.170Z,22.25769043
2022-08-02T04:55:01.780Z,22.26776123
2022-08-02T04:56:02.515Z,22.23754883
2022-08-02T04:57:03.256Z,22.22747803
2022-08-02T04:58:13.592Z,22.22747803
2022-08-02T04:59:04.825Z,22.18719482
2022-08-02T05:00:05.608Z,22.16705322
2022-08-02T05:01:07.454Z,22.13684082
2022-08-02T05:02:08.318Z,22.11669922
2022-08-02T05:03:08.854Z,22.13684082
2022-08-02T05:04:09.722Z,22.14691162
2022-08-02T05:05:10.496Z,22.16705322
2022-08-02T05:06:19.508Z,22.18719482
2022-08-02T05:07:12.276Z,22.18719482
2022-08-02T05:08:13.016Z,22.20733643
2022-08-02T05:09:13.844Z,22.20733643
2022-08-02T05:10:15.550Z,22.25769043
2022-08-02T05:11:55.037Z,22.26776123
2022-08-02T05:12:48.377Z,22.28790283
2022-08-02T05:13:58.734Z,22.30804443
2022-08-02T05:14:50.001Z,22.29797363
2022-08-02T05:15:50.763Z,22.32818604
2022-08-02T05:16:51.510Z,22.32818604
2022-08-02T05:17:52.926Z,22.37854004
2022-08-02T05:18:53.662Z,22.38861084
2022-08-02T05:19:54.554Z,22.40875244
2022-08-02T05:20:58.261Z,22.41882324
2022-08-02T05:21:56.705Z,22.44903564
2022-08-02T05:22:57.488Z,22.45910645
2022-08-02T05:23:58.290Z,22.47924805
2022-08-02T05:24:59.123Z,22.48931885
2022-08-02T05:25:59.932Z,22.47924805
2022-08-02T05:27:00.701Z,22.47924805
2022-08-02T05:28:01.455Z,22.50946045
2022-08-02T05:29:02.216Z,22.53967285
2022-08-02T05:30:03.061Z,22.50946045
2022-08-02T05:31:04.369Z,22.48931885
2022-08-02T05:32:05.102Z,22.48931885
2022-08-02T05:33:05.816Z,22.50946045
2022-08-02T05:34:11.355Z,22.47924805
2022-08-02T05:35:07.472Z,22.50946045
2022-08-02T05:36:08.237Z,22.48931885
2022-08-02T05:37:09.766Z,22.51953125
2022-08-02T05:38:10.364Z,22.50946045
2022-08-02T05:39:12.323Z,22.59002686
2022-08-02T05:40:12.977Z,22.63031006
2022-08-02T05:41:13.958Z,22.61016846
2022-08-02T05:42:15.256Z,22.63031006
2022-08-02T05:43:46.761Z,22.66052246
2022-08-02T05:44:47.561Z,22.70080566
2022-08-02T05:45:48.975Z,22.69073486
2022-08-02T05:46:49.689Z,22.70080566
2022-08-02T05:47:50.395Z,22.72094727
2022-08-02T05:48:51.226Z,22.69073486
2022-08-02T05:49:52.972Z,22.70080566
2022-08-02T05:50:54.506Z,22.70080566
2022-08-02T05:51:55.187Z,22.70080566
2022-08-02T05:52:55.872Z,22.69073486
2022-08-02T05:53:56.896Z,22.69073486
2022-08-02T05:54:57.533Z,22.72094727
2022-08-02T05:55:58.358Z,22.72094727
2022-08-02T05:56:59.057Z,22.74108887
2022-08-02T05:57:59.753Z,22.72094727
2022-08-02T05:59:00.526Z,22.72094727
2022-08-02T06:00:02.924Z,22.72094727
2022-08-02T06:01:03.498Z,22.78137207
2022-08-02T06:02:04.261Z,22.79144287
2022-08-02T06:03:05.794Z,22.82165527
2022-08-02T06:04:06.646Z,22.84179688
2022-08-02T06:05:07.503Z,22.86193848
2022-08-02T06:06:08.986Z,22.88208008
2022-08-02T06:07:09.675Z,22.89215088
2022-08-02T06:08:10.449Z,22.89215088
2022-08-02T06:09:11.530Z,22.88208008
2022-08-02T06:10:12.350Z,22.89215088
2022-08-02T06:11:13.911Z,22.93243408
2022-08-02T06:12:15.680Z,22.93243408
2022-08-02T06:13:46.654Z,22.96264648
2022-08-02T06:14:50.185Z,22.97271729
2022-08-02T06:15:53.377Z,22.96264648
2022-08-02T06:16:49.792Z,22.99285889
2022-08-02T06:17:50.540Z,22.99285889
2022-08-02T06:18:51.237Z,23.03314209
2022-08-02T06:19:52.712Z,23.03314209
2022-08-02T06:20:53.448Z,23.07342529
2022-08-02T06:21:54.276Z,23.1137085
2022-08-02T06:22:54.918Z,23.1237793
2022-08-02T06:23:57.615Z,23.1237793
2022-08-02T06:24:56.627Z,23.1539917
2022-08-02T06:25:57.955Z,23.1842041
2022-08-02T06:26:58.686Z,23.2144165
2022-08-02T06:27:59.390Z,23.2144165
2022-08-02T06:29:00.143Z,23.2244873
2022-08-02T06:30:00.979Z,23.2244873
2022-08-02T06:31:02.475Z,23.2144165
2022-08-02T06:32:03.219Z,23.23455811
2022-08-02T06:33:03.945Z,23.25469971
2022-08-02T06:34:04.796Z,23.26477051
2022-08-02T06:35:05.605Z,23.30505371
2022-08-02T06:36:06.408Z,23.29498291
2022-08-02T06:37:07.172Z,23.30505371
2022-08-02T06:38:08.469Z,23.31512451
2022-08-02T06:39:09.309Z,23.34533691
2022-08-02T06:40:10.113Z,23.34533691
2022-08-02T06:41:11.622Z,23.34533691
2022-08-02T06:42:12.728Z,23.38562012
2022-08-02T06:43:13.109Z,23.40576172
2022-08-02T06:44:45.537Z,23.43597412
2022-08-02T06:45:14.671Z,23.38562012
2022-08-02T06:47:11.134Z,23.40576172
2022-08-02T06:47:47.440Z,23.37554932
2022-08-02T06:48:48.155Z,23.38562012
2022-08-02T06:49:52.265Z,23.34533691
2022-08-02T06:50:50.496Z,23.36547852
2022-08-02T06:51:51.245Z,23.37554932
2022-08-02T06:52:52.805Z,23.37554932
2022-08-02T06:53:53.574Z,23.38562012
2022-08-02T06:54:54.409Z,23.38562012
2022-08-02T06:55:55.212Z,23.40576172
2022-08-02T06:56:55.973Z,23.40576172
2022-08-02T06:57:56.740Z,23.40576172
2022-08-02T06:58:57.522Z,23.41583252
2022-08-02T06:59:58.522Z,23.36547852
2022-08-02T07:00:59.226Z,23.33526611
2022-08-02T07:02:00.977Z,23.30505371
2022-08-02T07:03:01.598Z,23.31512451
2022-08-02T07:04:02.331Z,23.34533691
2022-08-02T07:05:03.118Z,23.36547852
2022-08-02T07:06:03.940Z,23.38562012
2022-08-02T07:07:04.686Z,23.38562012
2022-08-02T07:08:05.425Z,23.40576172
2022-08-02T07:09:20.896Z,23.43597412
2022-08-02T07:10:07.634Z,23.48632813
2022-08-02T07:11:08.985Z,23.51654053
2022-08-02T07:12:09.885Z,23.53668213
2022-08-02T07:13:10.459Z,23.55682373
2022-08-02T07:14:11.514Z,23.58703613
2022-08-02T07:15:12.267Z,23.59710693
2022-08-02T07:16:13.069Z,23.59710693
2022-08-02T07:17:14.461Z,23.59710693
2022-08-02T07:18:45.567Z,23.62731934
2022-08-02T07:19:46.382Z,23.63739014
2022-08-02T07:20:47.229Z,23.66760254
2022-08-02T07:21:57.824Z,23.68774414
2022-08-02T07:22:49.608Z,23.68774414
2022-08-02T07:23:50.369Z,23.71795654
2022-08-02T07:24:51.245Z,23.73809814
2022-08-02T07:26:02.695Z,23.76831055
2022-08-02T07:27:10.548Z,23.76831055
2022-08-02T07:27:53.635Z,23.77838135
2022-08-02T07:28:54.353Z,23.78845215
2022-08-02T07:29:55.199Z,23.78845215
2022-08-02T07:30:56.020Z,23.78845215
2022-08-02T07:31:57.403Z,23.80859375
2022-08-02T07:32:58.132Z,23.81866455
2022-08-02T07:33:58.830Z,23.83880615
2022-08-02T07:34:59.693Z,23.85894775
2022-08-02T07:36:01.629Z,23.85894775
2022-08-02T07:37:01.817Z,23.85894775
2022-08-02T07:38:02.710Z,23.83880615
2022-08-02T07:39:03.279Z,23.83880615
2022-08-02T07:40:07.589Z,23.86901855
2022-08-02T07:41:05.490Z,23.86901855
2022-08-02T07:42:07.005Z,23.86901855
2022-08-02T07:43:07.772Z,23.85894775
2022-08-02T07:44:08.496Z,23.88916016
2022-08-02T07:45:09.385Z,23.88916016
2022-08-02T07:46:10.173Z,23.88916016
2022-08-02T07:47:11.217Z,23.86901855
2022-08-02T07:48:11.795Z,23.86901855
2022-08-02T07:49:12.555Z,23.86901855
2022-08-02T07:50:13.937Z,23.89923096
2022-08-02T07:51:45.986Z,23.89923096
2022-08-02T07:52:46.768Z,23.89923096
2022-08-02T07:53:50.197Z,23.91937256
2022-08-02T07:54:48.192Z,23.91937256
2022-08-02T07:55:49.067Z,23.83880615
2022-08-02T07:56:50.869Z,23.80859375
2022-08-02T07:57:51.462Z,23.81866455
2022-08-02T07:58:51.895Z,23.81866455
2022-08-02T07:59:52.655Z,23.80859375
2022-08-02T08:00:53.541Z,23.80859375
2022-08-02T08:01:54.939Z,23.81866455
2022-08-02T08:02:58.797Z,23.85894775
2022-08-02T08:03:56.498Z,23.86901855
2022-08-02T08:04:57.354Z,23.89923096
2022-08-02T08:05:59.042Z,23.91937256
2022-08-02T08:06:59.867Z,23.93951416
2022-08-02T08:08:00.763Z,23.93951416
2022-08-02T08:09:01.495Z,23.96972656
2022-08-02T08:10:02.877Z,23.96972656
2022-08-02T08:11:04.512Z,23.98986816
2022-08-02T08:12:05.362Z,23.98986816
2022-08-02T08:13:07.046Z,23.99993896
2022-08-02T08:14:07.644Z,23.99993896
2022-08-02T08:15:08.362Z,24.02008057
2022-08-02T08:16:09.256Z,24.02008057
2022-08-02T08:17:10.095Z,24.02008057
2022-08-02T08:18:10.892Z,24.04022217
2022-08-02T08:19:11.693Z,24.04022217
2022-08-02T08:20:15.918Z,24.02008057
2022-08-02T08:21:14.302Z,24.04022217
2022-08-02T08:22:46.435Z,24.05029297
2022-08-02T08:23:47.208Z,24.02008057
2022-08-02T08:24:48.133Z,24.06036377
2022-08-02T08:25:48.811Z,24.05029297
2022-08-02T08:26:49.662Z,24.08050537
2022-08-02T08:27:50.449Z,24.11071777
2022-08-02T08:28:51.168Z,24.11071777
2022-08-02T08:29:51.933Z,24.12078857
2022-08-02T08:30:52.764Z,24.14093018
2022-08-02T08:31:54.515Z,24.16107178
2022-08-02T08:32:55.351Z,24.18121338
2022-08-02T08:33:56.054Z,24.19128418
2022-08-02T08:34:56.844Z,24.21142578
2022-08-02T08:35:58.428Z,24.23156738
2022-08-02T08:36:59.250Z,24.24163818
2022-08-02T08:38:04.177Z,24.26177979
2022-08-02T08:39:00.977Z,24.26177979
2022-08-02T08:40:01.834Z,24.29199219
2022-08-02T08:41:03.502Z,24.29199219
2022-08-02T08:42:05.085Z,24.29199219
2022-08-02T08:43:05.860Z,24.33227539
2022-08-02T08:44:06.582Z,24.33227539
2022-08-02T08:45:07.561Z,24.37255859
2022-08-02T08:46:08.421Z,24.3927002
2022-08-02T08:47:11.367Z,24.4430542
2022-08-02T08:48:10.094Z,24.4430542
2022-08-02T08:49:10.871Z,24.4833374
2022-08-02T08:50:18.055Z,24.4934082
2022-08-02T08:51:13.406Z,24.5135498
2022-08-02T08:52:45.466Z,24.5135498
2022-08-02T08:53:46.971Z,24.53369141
2022-08-02T08:54:48.673Z,24.55383301
2022-08-02T08:55:48.534Z,24.55383301
2022-08-02T08:56:49.394Z,24.55383301
2022-08-02T08:57:50.917Z,24.56390381
2022-08-02T08:58:51.583Z,24.56390381
2022-08-02T08:59:52.302Z,24.59411621
2022-08-02T09:00:53.066Z,24.60418701
2022-08-02T09:01:54.533Z,24.60418701
2022-08-02T09:02:55.232Z,24.61425781
2022-08-02T09:03:55.930Z,24.61425781
2022-08-02T09:04:56.627Z,24.63439941
2022-08-02T09:05:57.322Z,24.63439941
2022-08-02T09:06:58.055Z,24.64447021
2022-08-02T09:07:58.796Z,24.67468262
2022-08-02T09:08:59.982Z,24.68475342
2022-08-02T09:10:00.708Z,24.70489502
2022-08-02T09:11:01.452Z,24.70489502
2022-08-02T09:12:02.974Z,24.73510742
2022-08-02T09:13:03.708Z,24.74517822
2022-08-02T09:14:04.493Z,24.76531982
2022-08-02T09:15:05.297Z,24.78546143
2022-08-02T09:16:12.105Z,24.79553223
2022-08-02T09:17:06.908Z,24.82574463
2022-08-02T09:18:07.713Z,24.82574463
2022-08-02T09:19:08.524Z,24.82574463
2022-08-02T09:20:10.021Z,24.81567383
2022-08-02T09:21:10.979Z,24.83581543
2022-08-02T09:22:12.789Z,24.85595703
2022-08-02T09:23:13.652Z,24.86602783
2022-08-02T09:24:44.668Z,24.88616943
2022-08-02T09:25:58.983Z,24.89624023
2022-08-02T09:26:46.078Z,24.89624023
2022-08-02T09:27:46.879Z,24.91638184
2022-08-02T09:28:47.666Z,24.93652344
2022-08-02T09:30:05.959Z,24.96673584
2022-08-02T09:30:49.086Z,24.97680664
2022-08-02T09:31:50.163Z,25.00701904
2022-08-02T09:32:51.315Z,25.03723145
2022-08-02T09:33:52.045Z,25.03723145
2022-08-02T09:34:52.784Z,25.06744385
2022-08-02T09:36:06.965Z,25.08758545
2022-08-02T09:36:54.906Z,25.11779785
2022-08-02T09:37:54.966Z,25.15808105
2022-08-02T09:38:55.762Z,25.19836426
2022-08-02T09:39:57.142Z,25.22857666
2022-08-02T09:40:57.276Z,25.25878906
2022-08-02T09:41:58.842Z,25.28900146
2022-08-02T09:42:59.531Z,25.33935547
2022-08-02T09:44:05.355Z,25.34942627
2022-08-02T09:45:01.749Z,25.37963867
2022-08-02T09:46:02.446Z,25.38970947
2022-08-02T09:47:03.147Z,25.40985107
2022-08-02T09:48:03.866Z,25.41992188
2022-08-02T09:49:04.696Z,25.44006348
2022-08-02T09:50:05.336Z,25.44006348
2022-08-02T09:51:06.062Z,25.46020508
2022-08-02T09:52:07.491Z,25.51055908
2022-08-02T09:53:08.233Z,25.49041748
2022-08-02T09:54:09.339Z,25.51055908
2022-08-02T09:55:09.670Z,25.54077148
2022-08-02T09:56:33.930Z,25.56091309
2022-08-02T09:57:11.829Z,25.57098389
2022-08-02T09:58:12.600Z,25.59112549
2022-08-02T09:59:43.794Z,25.60119629
2022-08-02T10:00:52.468Z,25.60119629
2022-08-02T10:01:51.070Z,25.60119629
2022-08-02T10:02:46.843Z,25.63140869
2022-08-02T10:03:47.578Z,25.64147949
2022-08-02T10:04:53.445Z,25.64147949
2022-08-02T10:05:54.099Z,25.63140869
2022-08-02T10:06:49.707Z,25.63140869
2022-08-02T10:07:50.457Z,25.61126709
2022-08-02T10:08:51.177Z,25.61126709
2022-08-02T10:09:51.916Z,25.63140869
2022-08-02T10:10:52.563Z,25.61126709
2022-08-02T10:11:53.990Z,25.61126709
2022-08-02T10:12:55.404Z,25.61126709
2022-08-02T10:13:56.157Z,25.63140869
2022-08-02T10:14:57.525Z,25.64147949
2022-08-02T10:15:58.202Z,25.64147949
2022-08-02T10:16:58.941Z,25.63140869
2022-08-02T10:17:59.736Z,25.63140869
2022-08-02T10:19:00.458Z,25.61126709
2022-08-02T10:20:04.482Z,25.63140869
2022-08-02T10:21:01.900Z,25.64147949
2022-08-02T10:22:02.628Z,25.64147949
2022-08-02T10:23:03.819Z,25.66162109
2022-08-02T10:24:04.544Z,25.67169189
2022-08-02T10:25:05.325Z,25.6918335
2022-08-02T10:26:06.013Z,25.7119751
2022-08-02T10:27:06.697Z,25.7421875
2022-08-02T10:28:07.400Z,25.7421875
2022-08-02T10:29:08.104Z,25.7623291
2022-08-02T10:30:08.924Z,25.7925415
2022-08-02T10:31:09.648Z,25.7925415
2022-08-02T10:32:10.566Z,25.7925415
2022-08-02T10:33:11.930Z,25.82275391
2022-08-02T10:34:43.334Z,25.83282471
2022-08-02T10:35:44.120Z,25.82275391
2022-08-02T10:36:44.861Z,25.82275391
2022-08-02T10:37:45.611Z,25.83282471
2022-08-02T10:38:46.865Z,25.85296631
2022-08-02T10:39:50.768Z,25.85296631
2022-08-02T10:40:48.430Z,25.89324951
2022-08-02T10:41:50.010Z,25.91339111
2022-08-02T10:42:51.499Z,25.91339111
2022-08-02T10:43:52.193Z,25.91339111
2022-08-02T10:44:52.897Z,25.91339111
2022-08-02T10:45:53.691Z,25.93353271
2022-08-02T10:46:54.423Z,25.94360352
2022-08-02T10:47:55.168Z,25.94360352
2022-08-02T10:48:55.951Z,25.96374512
2022-08-02T10:49:56.751Z,25.97381592
2022-08-02T10:50:57.464Z,25.98388672
2022-08-02T10:51:58.130Z,26.00402832
2022-08-02T10:52:59.893Z,26.00402832
2022-08-02T10:54:00.644Z,25.98388672
2022-08-02T10:55:01.353Z,26.00402832
2022-08-02T10:56:02.109Z,26.03424072
2022-08-02T10:57:02.836Z,26.03424072
2022-08-02T10:58:03.579Z,26.06445313
2022-08-02T10:59:04.303Z,26.08459473
2022-08-02T11:00:05.032Z,26.09466553
2022-08-02T11:01:05.920Z,26.12487793
2022-08-02T11:02:07.519Z,26.12487793
2022-08-02T11:03:08.209Z,26.12487793
2022-08-02T11:04:10.687Z,26.13494873
2022-08-02T11:05:10.210Z,26.15509033
2022-08-02T11:06:25.793Z,26.15509033
2022-08-02T11:07:12.505Z,26.19537354
2022-08-02T11:08:43.524Z,26.20544434
2022-08-02T11:09:44.986Z,26.20544434
2022-08-02T11:10:45.725Z,26.22558594